Time;durP1;ratioP1;P1;durP2;ratioP2;P2;SDS_P1;SDS_P2;PMS_P1;PMS_P2;Temp;Humidity;BMP_temperature;BMP_pressure;BME280_temperature;BME280_humidity;BME280_pressure;Samples;Min_cycle;Max_cycle;Signal;HPM_P1;HPM_P2
2023/07/20 00:00:01;;;;;;;26.37;24.37;;;16.00;82.40;;;;;;4994600;28;21021;-66
2023/07/20 00:02:28;;;;;;;28.20;23.70;;;16.10;82.50;;;;;;4993970;28;20545;-66
2023/07/20 00:04:55;;;;;;;23.33;21.40;;;16.10;82.50;;;;;;5013151;28;20794;-66
2023/07/20 00:07:22;;;;;;;22.47;20.70;;;16.10;82.50;;;;;;5013744;28;20453;-66
2023/07/20 00:09:48;;;;;;;20.00;18.10;;;16.10;82.50;;;;;;4996784;28;20477;-66
2023/07/20 00:12:15;;;;;;;19.20;17.47;;;16.00;82.40;;;;;;4993982;28;20613;-66
2023/07/20 00:14:43;;;;;;;20.60;19.00;;;16.00;82.40;;;;;;4994326;28;20462;-66
2023/07/20 00:17:10;;;;;;;18.60;16.70;;;15.90;82.30;;;;;;4993953;28;20465;-66
2023/07/20 00:19:37;;;;;;;19.73;18.30;;;15.90;82.30;;;;;;4994059;28;20454;-66
2023/07/20 00:22:05;;;;;;;18.80;17.60;;;15.90;82.30;;;;;;4993885;28;20458;-66
2023/07/20 00:24:32;;;;;;;16.77;15.27;;;16.00;82.40;;;;;;4993679;28;20454;-66
2023/07/20 00:27:00;;;;;;;15.10;13.97;;;16.00;82.40;;;;;;4993593;28;20489;-66
2023/07/20 00:29:27;;;;;;;15.30;14.10;;;16.00;82.30;;;;;;5005779;28;20596;-66
2023/07/20 00:31:56;;;;;;;15.33;14.33;;;16.00;82.30;;;;;;5013092;28;20487;-66
2023/07/20 00:34:23;;;;;;;15.90;12.80;;;16.00;82.10;;;;;;5013076;28;20489;-66
2023/07/20 00:36:50;;;;;;;23.80;15.20;;;16.00;81.20;;;;;;5007530;28;20451;-66
2023/07/20 00:39:16;;;;;;;22.83;16.40;;;16.00;82.40;;;;;;4999663;28;20992;-66
2023/07/20 00:41:43;;;;;;;23.27;21.60;;;15.90;82.30;;;;;;5002075;28;20962;-66
2023/07/20 00:44:10;;;;;;;19.90;17.90;;;15.90;82.30;;;;;;5004304;28;20526;-66
2023/07/20 00:46:37;;;;;;;19.33;17.73;;;15.90;82.30;;;;;;5012856;28;20472;-66
2023/07/20 00:49:06;;;;;;;21.33;19.90;;;16.00;82.40;;;;;;5002946;28;20450;-66
2023/07/20 00:51:33;;;;;;;21.80;20.30;;;16.00;82.40;;;;;;4993247;28;20478;-66
2023/07/20 00:54:00;;;;;;;22.80;20.53;;;16.00;82.40;;;;;;5005231;28;20456;-66
2023/07/20 00:56:27;;;;;;;19.63;17.97;;;16.10;82.50;;;;;;5012650;28;20468;-66
2023/07/20 00:58:54;;;;;;;22.90;17.30;;;16.10;82.50;;;;;;5004481;28;20446;-66
2023/07/20 01:01:21;;;;;;;17.93;16.43;;;16.10;82.50;;;;;;4996076;28;20450;-66
2023/07/20 01:03:47;;;;;;;20.10;18.70;;;16.10;82.50;;;;;;4997869;28;20454;-66
2023/07/20 01:06:27;;;;;;;21.17;19.53;;;16.10;82.50;;;;;;4993088;28;20461;-66
2023/07/20 01:09:05;;;;;;;22.50;20.93;;;16.10;82.50;;;;;;4999961;28;20972;-66
2023/07/20 01:11:39;;;;;;;27.20;25.47;;;16.10;82.50;;;;;;5012735;28;20508;-66
2023/07/20 01:14:06;;;;;;;38.67;36.77;;;16.10;82.50;;;;;;5012828;28;20487;-66
2023/07/20 01:16:34;;;;;;;54.50;52.10;;;16.10;86.30;;;;;;5010884;28;20487;-65
2023/07/20 01:19:00;;;;;;;135.77;130.87;;;16.00;98.70;;;;;;5003439;28;20451;-64
2023/07/20 01:21:35;;;;;;;306.13;294.90;;;15.90;99.90;;;;;;4992921;28;20489;-64
2023/07/20 01:24:31;;;;;;;390.90;375.83;;;15.80;99.90;;;;;;4992774;28;20976;-64
2023/07/20 01:27:52;;;;;;;770.40;735.30;;;15.70;99.90;;;;;;4993306;28;20985;-63
2023/07/20 01:30:54;;;;;;;791.83;752.63;;;15.50;99.90;;;;;;4918735;29;20468;-64
2023/07/20 01:33:25;;;;;;;803.03;759.33;;;15.40;99.90;;;;;;4932252;29;20634;-64
2023/07/20 01:35:57;;;;;;;819.80;771.60;;;15.30;99.90;;;;;;4975191;28;20880;-64
2023/07/20 01:38:25;;;;;;;841.70;791.20;;;15.30;99.90;;;;;;4992525;28;20533;-64
2023/07/20 01:40:52;;;;;;;885.50;830.20;;;15.10;99.90;;;;;;4992475;28;20825;-64
2023/07/20 01:43:19;;;;;;;882.17;826.57;;;15.10;99.90;;;;;;4997189;28;20453;-64
2023/07/20 01:45:46;;;;;;;881.73;825.93;;;14.90;99.90;;;;;;4993759;28;20455;-64
2023/07/20 01:48:13;;;;;;;923.00;863.47;;;14.80;99.90;;;;;;4992323;28;21009;-64
2023/07/20 01:50:41;;;;;;;917.10;856.77;;;14.70;99.90;;;;;;4992612;28;20454;-64
2023/07/20 01:53:08;;;;;;;926.60;864.47;;;14.60;99.90;;;;;;4994471;28;20482;-64
2023/07/20 01:55:35;;;;;;;944.97;880.57;;;14.40;99.90;;;;;;5005687;28;20456;-64
2023/07/20 01:58:03;;;;;;;959.53;892.60;;;14.40;99.90;;;;;;5012631;28;20457;-64
2023/07/20 02:00:30;;;;;;;963.80;896.80;;;14.40;99.90;;;;;;5015994;28;20461;-64
2023/07/20 02:02:56;;;;;;;964.83;897.70;;;14.40;99.90;;;;;;5012914;28;21916;-64
2023/07/20 02:05:23;;;;;;;961.77;894.17;;;14.30;99.90;;;;;;4996285;28;20460;-64
2023/07/20 02:07:51;;;;;;;966.20;897.60;;;14.30;99.90;;;;;;4996022;28;20454;-63
2023/07/20 02:10:18;;;;;;;977.23;907.60;;;14.20;99.90;;;;;;4995827;28;20942;-64
2023/07/20 02:12:45;;;;;;;968.67;899.10;;;14.20;99.90;;;;;;4997109;28;20482;-64
2023/07/20 02:15:13;;;;;;;961.57;892.60;;;14.20;99.90;;;;;;5015776;28;20468;-64
2023/07/20 02:17:41;;;;;;;960.63;890.67;;;14.10;99.90;;;;;;5004234;28;20450;-64
2023/07/20 02:20:09;;;;;;;975.87;903.80;;;14.10;99.90;;;;;;4995757;28;20833;-64
2023/07/20 02:22:37;;;;;;;963.27;891.33;;;14.10;99.90;;;;;;4995700;28;20461;-64
2023/07/20 02:25:05;;;;;;;955.33;883.40;;;14.00;99.90;;;;;;5015127;28;20948;-64
2023/07/20 02:27:32;;;;;;;928.10;856.70;;;14.10;99.90;;;;;;5015609;28;20480;-64
2023/07/20 02:29:59;;;;;;;928.17;855.47;;;14.00;99.90;;;;;;5015238;28;20461;-64
2023/07/20 02:32:26;;;;;;;938.30;863.30;;;14.00;99.90;;;;;;5014810;28;20568;-64
2023/07/20 02:34:53;;;;;;;956.67;878.27;;;14.10;99.90;;;;;;4995766;28;20469;-64
2023/07/20 02:37:20;;;;;;;968.57;889.90;;;14.20;99.90;;;;;;4995527;28;20462;-64
2023/07/20 02:39:46;;;;;;;955.37;877.50;;;14.40;99.90;;;;;;4995487;28;20454;-64
2023/07/20 02:42:15;;;;;;;946.50;869.53;;;14.50;99.90;;;;;;4996748;28;20549;-64
2023/07/20 02:44:41;;;;;;;942.80;865.93;;;14.50;99.90;;;;;;4995645;28;20458;-64
2023/07/20 02:47:08;;;;;;;931.90;856.70;;;14.50;99.90;;;;;;4995525;28;20465;-64
2023/07/20 02:49:35;;;;;;;930.30;855.27;;;14.50;99.90;;;;;;4995074;28;20465;-64
2023/07/20 02:52:02;;;;;;;910.47;836.37;;;14.50;99.90;;;;;;4995705;28;20478;-64
2023/07/20 02:54:31;;;;;;;915.70;842.00;;;14.50;99.90;;;;;;5014964;28;20596;-64
2023/07/20 02:56:57;;;;;;;901.00;827.70;;;14.50;99.90;;;;;;5014840;28;21000;-64
2023/07/20 02:59:26;;;;;;;907.47;833.90;;;14.40;99.90;;;;;;5014690;28;20464;-64
2023/07/20 03:01:54;;;;;;;901.53;828.30;;;14.40;99.90;;;;;;5014712;28;20456;-64
2023/07/20 03:04:21;;;;;;;881.57;810.20;;;14.50;99.90;;;;;;4995871;28;20883;-64
2023/07/20 03:06:48;;;;;;;876.47;805.30;;;14.50;99.90;;;;;;4995218;28;20450;-64
2023/07/20 03:09:15;;;;;;;866.53;797.33;;;14.50;99.90;;;;;;4995032;28;20825;-64
2023/07/20 03:11:42;;;;;;;859.77;790.80;;;14.50;99.90;;;;;;4995087;28;20601;-64
2023/07/20 03:14:10;;;;;;;839.90;770.33;;;14.50;99.90;;;;;;5012190;28;20454;-64
2023/07/20 03:16:38;;;;;;;820.10;747.80;;;14.50;99.90;;;;;;5014476;28;20458;-64
2023/07/20 03:19:05;;;;;;;819.73;748.33;;;14.40;99.90;;;;;;4999857;28;20453;-65
2023/07/20 03:21:32;;;;;;;819.50;747.97;;;14.40;99.90;;;;;;5005807;28;20454;-65
2023/07/20 03:23:59;;;;;;;813.97;741.30;;;14.40;99.90;;;;;;5000278;28;20459;-65
2023/07/20 03:26:26;;;;;;;815.50;742.07;;;14.40;99.90;;;;;;5006591;28;20818;-66
2023/07/20 03:28:52;;;;;;;812.67;738.57;;;14.50;99.90;;;;;;4999980;28;20454;-66
2023/07/20 03:31:20;;;;;;;813.17;739.23;;;14.50;99.90;;;;;;5008167;28;20461;-66
2023/07/20 03:33:48;;;;;;;810.13;736.23;;;14.50;99.90;;;;;;5009123;28;20986;-67
2023/07/20 03:36:14;;;;;;;810.50;737.60;;;14.60;99.90;;;;;;5014231;28;20461;-66
2023/07/20 03:38:41;;;;;;;823.60;751.20;;;14.70;99.90;;;;;;5004226;28;20454;-67
2023/07/20 03:41:09;;;;;;;824.17;752.27;;;14.80;99.90;;;;;;4994443;28;20976;-67
2023/07/20 03:43:36;;;;;;;826.00;754.70;;;14.80;99.90;;;;;;5001206;28;20817;-67
2023/07/20 03:46:06;;;;;;;840.23;770.30;;;14.80;99.90;;;;;;4997052;28;20958;-68
2023/07/20 03:48:33;;;;;;;827.60;757.97;;;14.80;99.90;;;;;;4996467;28;20819;-68
2023/07/20 03:51:01;;;;;;;834.17;764.27;;;14.80;99.90;;;;;;5009494;28;20453;-68
2023/07/20 03:53:28;;;;;;;828.17;758.10;;;14.80;99.90;;;;;;5000568;28;20478;-69
2023/07/20 03:55:56;;;;;;;828.00;761.23;;;14.80;99.90;;;;;;4995369;28;20484;-68
2023/07/20 03:58:23;;;;;;;829.70;763.43;;;14.80;99.90;;;;;;5004517;28;20453;-68
2023/07/20 04:00:51;;;;;;;848.03;781.67;;;14.80;99.90;;;;;;5012252;28;20456;-68
2023/07/20 04:03:18;;;;;;;846.50;780.10;;;14.80;99.90;;;;;;4993961;28;20446;-69
2023/07/20 04:05:45;;;;;;;840.93;774.03;;;14.70;99.90;;;;;;4996849;28;20497;-68
2023/07/20 04:08:13;;;;;;;835.80;769.43;;;14.70;99.90;;;;;;5001940;28;20818;-68
2023/07/20 04:10:40;;;;;;;837.93;771.67;;;14.70;99.90;;;;;;5001581;28;20598;-68
2023/07/20 04:13:07;;;;;;;840.10;772.73;;;14.70;99.90;;;;;;4994454;28;20485;-68
2023/07/20 04:15:34;;;;;;;842.53;774.93;;;14.70;99.90;;;;;;5009996;28;20508;-69
2023/07/20 04:18:01;;;;;;;844.30;776.70;;;14.70;99.90;;;;;;5012546;28;20966;-69
2023/07/20 04:20:27;;;;;;;840.87;774.90;;;14.80;99.90;;;;;;5011000;28;20451;-68
2023/07/20 04:22:54;;;;;;;839.10;773.70;;;14.90;99.90;;;;;;4996504;28;20977;-68
2023/07/20 04:25:22;;;;;;;835.90;772.00;;;14.90;99.90;;;;;;5002335;28;20489;-69
2023/07/20 04:27:51;;;;;;;842.33;779.83;;;14.90;99.90;;;;;;5006200;28;20450;-69
2023/07/20 04:30:21;;;;;;;848.73;787.53;;;15.00;99.90;;;;;;5006679;28;20458;-69
2023/07/20 04:32:48;;;;;;;850.90;790.37;;;15.00;99.90;;;;;;5007480;28;20913;-68
2023/07/20 04:35:19;;;;;;;853.50;793.50;;;15.10;99.90;;;;;;4995520;28;20458;-68
2023/07/20 04:37:46;;;;;;;842.77;784.87;;;15.10;99.90;;;;;;4993888;28;20458;-67
2023/07/20 04:40:13;;;;;;;849.43;792.33;;;15.10;99.90;;;;;;4999434;28;20453;-68
2023/07/20 04:42:41;;;;;;;851.33;794.00;;;15.10;99.90;;;;;;5004570;28;20968;-68
2023/07/20 04:45:09;;;;;;;857.13;799.77;;;15.10;99.90;;;;;;5009672;28;20458;-68
2023/07/20 04:47:36;;;;;;;849.80;792.37;;;15.10;99.90;;;;;;5012836;28;20458;-68
2023/07/20 04:50:03;;;;;;;850.23;792.50;;;15.10;99.90;;;;;;4995095;28;20447;-69
2023/07/20 04:52:30;;;;;;;855.50;798.17;;;15.10;99.90;;;;;;5008040;28;20540;-68
2023/07/20 04:54:57;;;;;;;856.90;799.37;;;15.20;99.90;;;;;;5007803;28;20536;-68
2023/07/20 04:57:25;;;;;;;852.33;796.03;;;15.20;99.90;;;;;;5000444;28;20451;-68
2023/07/20 04:59:53;;;;;;;859.33;803.30;;;15.20;99.90;;;;;;5002701;28;20473;-68
2023/07/20 05:02:20;;;;;;;861.60;807.03;;;15.20;99.90;;;;;;5010888;28;20445;-69
2023/07/20 05:04:47;;;;;;;865.00;810.50;;;15.30;99.90;;;;;;5002009;28;20462;-69
2023/07/20 05:07:14;;;;;;;854.47;798.77;;;15.30;99.90;;;;;;5002722;28;20840;-68
2023/07/20 05:09:41;;;;;;;861.17;803.13;;;15.30;99.90;;;;;;4996774;28;20453;-69
2023/07/20 05:12:08;;;;;;;849.67;793.87;;;15.50;99.90;;;;;;5005001;28;20829;-69
2023/07/20 05:14:35;;;;;;;858.17;800.60;;;15.60;99.90;;;;;;5003123;28;20457;-69
2023/07/20 05:17:03;;;;;;;854.40;800.07;;;15.70;99.90;;;;;;4993903;28;20958;-69
2023/07/20 05:19:30;;;;;;;844.50;793.27;;;15.80;99.90;;;;;;4992968;28;20464;-69
2023/07/20 05:21:57;;;;;;;848.13;795.30;;;15.80;99.90;;;;;;5002105;28;20457;-69
2023/07/20 05:24:24;;;;;;;849.23;796.97;;;15.80;99.90;;;;;;4999810;28;20453;-69
2023/07/20 05:26:51;;;;;;;850.47;800.27;;;15.90;99.90;;;;;;5012186;28;20468;-67
2023/07/20 05:29:18;;;;;;;844.20;793.07;;;16.00;99.90;;;;;;5000058;28;20726;-67
2023/07/20 05:31:45;;;;;;;825.17;776.23;;;16.00;99.90;;;;;;4994177;28;20466;-67
2023/07/20 05:34:13;;;;;;;807.67;761.63;;;16.10;99.90;;;;;;4996207;28;20481;-66
2023/07/20 05:36:39;;;;;;;782.67;740.27;;;16.30;99.90;;;;;;5007295;28;20446;-67
2023/07/20 05:39:07;;;;;;;677.47;642.40;;;16.40;99.90;;;;;;5003474;28;20460;-67
2023/07/20 05:41:34;;;;;;;688.67;656.43;;;16.60;99.90;;;;;;4996637;28;20217;-67
2023/07/20 05:44:00;;;;;;;569.77;545.07;;;16.70;99.90;;;;;;4996692;28;20465;-67
2023/07/20 05:46:27;;;;;;;511.87;491.07;;;16.70;99.90;;;;;;4996775;28;20458;-69
2023/07/20 05:48:54;;;;;;;439.43;422.20;;;16.80;99.90;;;;;;4996158;28;20949;-68
2023/07/20 05:51:22;;;;;;;404.50;388.30;;;16.80;99.90;;;;;;4996346;28;20946;-68
2023/07/20 05:53:49;;;;;;;433.13;416.43;;;16.90;99.90;;;;;;4996441;28;20478;-68
2023/07/20 05:56:16;;;;;;;514.00;493.10;;;16.90;99.90;;;;;;4996571;28;20536;-68
2023/07/20 05:58:43;;;;;;;379.07;365.00;;;16.90;99.90;;;;;;4995882;28;20481;-68
2023/07/20 06:01:10;;;;;;;517.47;496.17;;;16.90;99.90;;;;;;4996372;28;20458;-67
2023/07/20 06:03:37;;;;;;;484.97;465.13;;;16.90;99.90;;;;;;4995834;28;20462;-67
2023/07/20 06:06:05;;;;;;;558.20;534.73;;;17.00;99.90;;;;;;4994877;28;20537;-67
2023/07/20 06:08:33;;;;;;;384.80;370.33;;;17.10;99.90;;;;;;4995223;28;20458;-68
2023/07/20 06:11:01;;;;;;;295.37;283.20;;;17.30;99.90;;;;;;4995502;28;20513;-68
2023/07/20 06:13:27;;;;;;;202.47;194.87;;;17.30;99.90;;;;;;4995791;28;21019;-68
2023/07/20 06:15:55;;;;;;;180.27;172.67;;;17.40;99.90;;;;;;4995304;28;20541;-68
2023/07/20 06:18:23;;;;;;;103.83;98.53;;;17.40;99.90;;;;;;4996156;28;20462;-68
2023/07/20 06:20:51;;;;;;;100.80;96.03;;;17.40;99.90;;;;;;4995905;28;20480;-68
2023/07/20 06:23:18;;;;;;;205.93;198.00;;;17.30;99.90;;;;;;4995926;28;20494;-68
2023/07/20 06:25:46;;;;;;;97.87;92.67;;;17.50;99.90;;;;;;4995428;28;20462;-68
2023/07/20 06:28:14;;;;;;;117.17;111.37;;;17.50;99.90;;;;;;4994949;28;20464;-68
2023/07/20 06:30:41;;;;;;;58.50;54.90;;;17.70;99.90;;;;;;4995861;28;20458;-67
2023/07/20 06:33:08;;;;;;;61.77;58.17;;;17.90;99.90;;;;;;4995715;28;20489;-68
2023/07/20 06:35:35;;;;;;;25.90;21.13;;;18.00;99.90;;;;;;4995725;28;20465;-68
2023/07/20 06:38:03;;;;;;;21.70;19.43;;;18.30;97.80;;;;;;4995547;28;20455;-68
2023/07/20 06:40:30;;;;;;;17.83;14.17;;;18.40;97.80;;;;;;4995577;28;20462;-68
2023/07/20 06:42:58;;;;;;;19.77;16.03;;;18.20;95.80;;;;;;4995279;28;20450;-68
2023/07/20 06:45:25;;;;;;;16.73;14.10;;;18.10;94.80;;;;;;4995563;28;20460;-68
2023/07/20 06:47:52;;;;;;;23.40;15.40;;;18.10;96.00;;;;;;4995575;28;20485;-68
2023/07/20 06:50:19;;;;;;;20.70;16.00;;;18.10;97.70;;;;;;4995248;28;20454;-68
2023/07/20 06:52:47;;;;;;;17.63;13.90;;;18.20;97.00;;;;;;4995227;28;20570;-68
2023/07/20 06:55:14;;;;;;;18.77;16.83;;;18.00;95.50;;;;;;4995356;28;20470;-68
2023/07/20 06:57:41;;;;;;;16.43;14.57;;;18.30;97.80;;;;;;4995070;28;20455;-68
2023/07/20 07:00:11;;;;;;;19.57;12.97;;;18.90;94.70;;;;;;4995182;28;20465;-67
2023/07/20 07:02:37;;;;;;;16.83;12.20;;;19.50;94.90;;;;;;5007673;28;20454;-68
2023/07/20 07:05:05;;;;;;;18.27;11.10;;;20.10;91.70;;;;;;5014172;28;20812;-68
2023/07/20 07:07:32;;;;;;;16.13;11.63;;;20.40;86.40;;;;;;5013613;28;20453;-68
2023/07/20 07:09:59;;;;;;;15.00;9.40;;;20.30;86.30;;;;;;5013084;28;20454;-68
2023/07/20 07:12:26;;;;;;;12.00;8.77;;;20.50;86.50;;;;;;5013827;28;20449;-67
2023/07/20 07:14:53;;;;;;;15.03;9.63;;;20.20;78.30;;;;;;5014086;28;20481;-68
2023/07/20 07:17:21;;;;;;;12.93;8.60;;;19.60;77.80;;;;;;5014243;28;20507;-67
2023/07/20 07:19:48;;;;;;;13.30;9.47;;;19.30;85.30;;;;;;5014088;28;20457;-67
2023/07/20 07:22:15;;;;;;;11.33;8.07;;;19.40;85.50;;;;;;5014211;28;20454;-67
2023/07/20 07:24:42;;;;;;;10.93;6.53;;;20.10;86.10;;;;;;5013746;28;20787;-67
2023/07/20 07:27:09;;;;;;;11.53;6.97;;;20.30;70.40;;;;;;5013787;28;20454;-68
2023/07/20 07:29:36;;;;;;;11.73;6.80;;;20.60;70.20;;;;;;5013647;28;20453;-68
2023/07/20 07:32:03;;;;;;;9.43;6.27;;;21.00;65.60;;;;;;5014002;28;20457;-67
2023/07/20 07:34:34;;;;;;;11.70;6.57;;;20.90;68.50;;;;;;5013824;28;20488;-67
2023/07/20 07:37:01;;;;;;;8.83;6.73;;;20.70;70.70;;;;;;5014103;28;20477;-68
2023/07/20 07:39:29;;;;;;;13.60;8.90;;;20.40;70.50;;;;;;5013210;28;20458;-67
2023/07/20 07:41:56;;;;;;;11.67;7.70;;;20.10;70.20;;;;;;5012917;28;20505;-67
2023/07/20 07:44:23;;;;;;;12.20;7.83;;;19.70;69.90;;;;;;5013725;28;20456;-67
2023/07/20 07:46:50;;;;;;;13.93;7.67;;;19.90;71.50;;;;;;5013937;28;20453;-67
2023/07/20 07:49:18;;;;;;;10.93;8.40;;;20.50;70.60;;;;;;5013362;28;20460;-67
2023/07/20 07:51:46;;;;;;;11.30;7.80;;;20.90;62.70;;;;;;5013494;28;20464;-67
2023/07/20 07:54:13;;;;;;;11.10;7.57;;;21.50;63.20;;;;;;5012662;28;20838;-67
2023/07/20 07:56:40;;;;;;;13.00;7.70;;;21.70;63.30;;;;;;5013306;28;20460;-67
2023/07/20 07:59:07;;;;;;;11.10;6.30;;;21.80;59.40;;;;;;5013270;28;20465;-66
2023/07/20 08:01:34;;;;;;;10.20;5.80;;;22.30;55.30;;;;;;5013498;28;20450;-67
2023/07/20 08:04:01;;;;;;;13.57;7.27;;;22.20;55.30;;;;;;5013016;28;20460;-67
2023/07/20 08:06:28;;;;;;;12.40;7.03;;;22.50;55.60;;;;;;5012620;28;20453;-67
2023/07/20 08:08:56;;;;;;;6.97;4.70;;;22.00;46.30;;;;;;5013092;28;20464;-67
2023/07/20 08:11:24;;;;;;;9.13;4.90;;;21.60;46.20;;;;;;5012606;28;20458;-67
2023/07/20 08:13:50;;;;;;;8.60;5.27;;;21.50;54.60;;;;;;5012368;28;21107;-68
2023/07/20 08:16:17;;;;;;;11.97;5.30;;;21.20;54.30;;;;;;5012362;28;20453;-67
2023/07/20 08:18:45;;;;;;;11.73;5.50;;;20.80;54.00;;;;;;5012002;28;20450;-67
2023/07/20 08:21:12;;;;;;;8.00;4.70;;;20.30;57.90;;;;;;5012600;28;20460;-67
2023/07/20 08:23:38;;;;;;;11.27;6.10;;;20.60;57.70;;;;;;5012134;28;20457;-67
2023/07/20 08:26:07;;;;;;;9.10;4.73;;;21.30;54.40;;;;;;5011869;28;20468;-67
2023/07/20 08:28:33;;;;;;;7.47;3.73;;;21.60;54.70;;;;;;5011949;28;20552;-67
2023/07/20 08:31:00;;;;;;;8.80;3.00;;;21.70;43.10;;;;;;5013062;28;20461;-66
2023/07/20 08:33:29;;;;;;;8.30;3.20;;;21.40;41.70;;;;;;5013019;28;20477;-67
2023/07/20 08:35:56;;;;;;;9.67;3.73;;;21.80;46.00;;;;;;5012950;28;20891;-67
2023/07/20 08:38:23;;;;;;;6.73;3.13;;;21.80;42.20;;;;;;5012417;28;20461;-67
2023/07/20 08:40:51;;;;;;;8.00;3.77;;;22.10;43.70;;;;;;5012954;28;20476;-67
2023/07/20 08:43:19;;;;;;;7.13;3.70;;;22.10;46.00;;;;;;5012656;28;20946;-67
2023/07/20 08:45:46;;;;;;;7.43;3.37;;;22.60;44.40;;;;;;5012894;28;20479;-67
2023/07/20 08:48:13;;;;;;;8.60;3.57;;;23.30;38.40;;;;;;5012895;28;20457;-68
2023/07/20 08:50:40;;;;;;;7.90;4.33;;;23.30;30.80;;;;;;5012432;28;20458;-68
2023/07/20 08:53:09;;;;;;;7.07;3.00;;;22.70;31.40;;;;;;5012583;28;20500;-67
2023/07/20 08:55:37;;;;;;;5.60;2.27;;;22.20;35.10;;;;;;5012861;28;20453;-68
2023/07/20 08:58:06;;;;;;;6.33;2.60;;;21.60;37.70;;;;;;5012447;28;20985;-67
2023/07/20 09:00:36;;;;;;;8.70;2.80;;;21.30;34.20;;;;;;5012351;28;20543;-67
2023/07/20 09:03:04;;;;;;;5.10;1.80;;;21.80;37.00;;;;;;5011835;28;20461;-67
2023/07/20 09:05:31;;;;;;;7.43;2.00;;;21.70;28.20;;;;;;5011599;28;20489;-66
2023/07/20 09:07:58;;;;;;;5.20;2.00;;;22.40;28.70;;;;;;5011558;28;20484;-66
2023/07/20 09:10:25;;;;;;;7.33;2.67;;;22.70;28.90;;;;;;5011624;28;20464;-67
2023/07/20 09:12:52;;;;;;;5.50;2.10;;;22.60;26.50;;;;;;5011989;28;20453;-67
2023/07/20 09:15:21;;;;;;;5.80;2.50;;;23.00;21.90;;;;;;5012220;28;20567;-67
2023/07/20 09:17:50;;;;;;;5.73;1.90;;;23.80;22.50;;;;;;5012234;28;20461;-67
2023/07/20 09:20:18;;;;;;;5.93;2.60;;;24.00;18.90;;;;;;5011925;28;20543;-68
2023/07/20 09:22:45;;;;;;;5.40;2.33;;;23.10;21.90;;;;;;5012584;28;20544;-67
2023/07/20 09:25:14;;;;;;;6.77;3.70;;;22.70;25.60;;;;;;5012671;28;20450;-65
2023/07/20 09:27:42;;;;;;;6.10;2.50;;;22.60;26.30;;;;;;5012032;28;20459;-65
2023/07/20 09:30:11;;;;;;;6.80;2.83;;;23.40;22.20;;;;;;5011913;28;20457;-66
2023/07/20 09:32:43;;;;;;;6.20;2.90;;;23.80;22.40;;;;;;5012343;28;20464;-65
2023/07/20 09:35:15;;;;;;;6.70;2.60;;;24.00;21.60;;;;;;5012520;28;20481;-66
2023/07/20 09:37:51;;;;;;;5.83;2.30;;;24.70;15.60;;;;;;5011514;28;20507;-66
2023/07/20 09:40:19;;;;;;;6.37;2.40;;;25.60;10.80;;;;;;5012206;28;21038;-66
2023/07/20 09:42:46;;;;;;;5.50;1.90;;;25.70;8.50;;;;;;5012129;28;20465;-65
2023/07/20 09:45:14;;;;;;;4.97;1.77;;;25.80;8.50;;;;;;5012095;28;20464;-66
2023/07/20 09:47:41;;;;;;;6.00;2.10;;;25.70;4.50;;;;;;5012503;28;20453;-66
2023/07/20 09:50:10;;;;;;;5.50;2.17;;;25.30;8.30;;;;;;5012220;28;21008;-65
2023/07/20 09:52:40;;;;;;;6.03;1.80;;;25.80;8.60;;;;;;5012001;28;20972;-65
2023/07/20 09:55:08;;;;;;;5.00;1.83;;;25.10;4.40;;;;;;5011302;28;20488;-66
2023/07/20 09:57:36;;;;;;;5.30;1.83;;;25.70;6.60;;;;;;5011026;28;20941;-65
2023/07/20 10:00:08;;;;;;;5.17;2.13;;;24.90;8.10;;;;;;5011505;28;20457;-66
2023/07/20 10:02:37;;;;;;;5.30;1.80;;;25.30;8.30;;;;;;5011906;28;20461;-65
2023/07/20 10:05:05;;;;;;;4.80;1.67;;;24.20;1.00;;;;;;5012202;28;20445;-65
2023/07/20 10:07:33;;;;;;;5.03;1.60;;;24.40;7.70;;;;;;5011795;28;20449;-66
2023/07/20 10:10:05;;;;;;;6.10;1.50;;;24.50;7.80;;;;;;5011649;28;20457;-66
2023/07/20 10:12:32;;;;;;;6.03;1.63;;;25.10;8.10;;;;;;5012062;28;20548;-66
2023/07/20 10:15:11;;;;;;;5.83;2.00;;;25.40;6.00;;;;;;5012042;28;20504;-66
2023/07/20 10:17:41;;;;;;;7.23;1.70;;;24.80;6.40;;;;;;5013174;28;20453;-66
2023/07/20 10:20:10;;;;;;;7.80;2.20;;;24.80;4.40;;;;;;5015474;28;20972;-66
2023/07/20 10:22:39;;;;;;;5.70;1.87;;;24.40;1.00;;;;;;5015580;28;20457;-66
2023/07/20 10:25:08;;;;;;;6.53;1.50;;;25.20;1.00;;;;;;5014404;28;20449;-66
2023/07/20 10:27:35;;;;;;;4.47;1.27;;;25.80;1.00;;;;;;5015358;28;20457;-66
2023/07/20 10:30:03;;;;;;;5.67;1.43;;;27.60;1.00;;;;;;5015441;28;20988;-66
2023/07/20 10:32:31;;;;;;;4.30;1.20;;;28.00;1.00;;;;;;5015706;28;20457;-66
2023/07/20 10:34:58;;;;;;;5.43;1.40;;;27.10;1.00;;;;;;5015257;28;20484;-66
2023/07/20 10:37:50;;;;;;;5.85;1.50;;;25.90;1.00;;;;;;5014972;28;20454;-66
2023/07/20 10:40:32;;;;;;;5.17;1.30;;;25.00;1.00;;;;;;5005833;28;20574;-66
2023/07/20 10:43:07;;;;;;;7.60;1.57;;;24.80;1.00;;;;;;5016805;28;20438;-67
2023/07/20 10:45:41;;;;;;;7.33;1.43;;;24.80;1.00;;;;;;5016340;28;20452;-66
2023/07/20 10:48:16;;;;;;;4.87;1.40;;;25.10;1.00;;;;;;5015121;28;20449;-66
2023/07/20 10:50:43;;;;;;;5.20;1.30;;;26.10;1.00;;;;;;5014997;28;20449;-66
2023/07/20 10:53:17;;;;;;;4.80;1.40;;;26.50;1.00;;;;;;5014757;28;20461;-66
2023/07/20 10:55:46;;;;;;;6.57;1.57;;;26.90;1.00;;;;;;5014865;28;20480;-66
2023/07/20 10:58:15;;;;;;;4.70;1.10;;;26.80;1.00;;;;;;5014981;28;20460;-66
2023/07/20 11:01:02;;;;;;;5.30;1.60;;;25.60;1.00;;;;;;5014960;28;20877;-66
2023/07/20 11:03:33;;;;;;;4.53;1.00;;;24.80;1.00;;;;;;5013985;28;20457;-67
2023/07/20 11:06:02;;;;;;;4.20;1.10;;;24.30;1.00;;;;;;5013881;28;20578;-67
2023/07/20 11:08:41;;;;;;;5.73;1.30;;;23.70;1.00;;;;;;5013872;28;20460;-67
2023/07/20 11:11:25;;;;;;;5.07;1.37;;;23.80;1.00;;;;;;5014125;28;20504;-67
2023/07/20 11:13:57;;;;;;;4.60;1.00;;;23.80;1.00;;;;;;5014391;28;20450;-67
2023/07/20 11:16:37;;;;;;;5.40;1.27;;;23.50;1.00;;;;;;5014586;28;20457;-66
2023/07/20 11:19:05;;;;;;;4.10;1.10;;;23.90;1.00;;;;;;5014274;28;20464;-67
2023/07/20 11:21:37;;;;;;;4.70;1.20;;;25.30;1.00;;;;;;5014533;28;20453;-67
2023/07/20 11:24:05;;;;;;;6.37;1.73;;;25.60;1.00;;;;;;5014468;28;20552;-66
2023/07/20 11:26:43;;;;;;;4.90;1.20;;;26.40;1.00;;;;;;5013718;28;20508;-66
2023/07/20 11:29:09;;;;;;;4.40;1.13;;;27.70;1.00;;;;;;5012822;28;20459;-66
2023/07/20 11:31:37;;;;;;;5.00;1.43;;;27.20;1.00;;;;;;5014250;28;20523;-66
2023/07/20 11:34:04;;;;;;;4.70;1.43;;;26.60;1.00;;;;;;5014057;28;20453;-67
2023/07/20 11:36:31;;;;;;;4.13;1.10;;;25.70;1.00;;;;;;5013521;28;20764;-66
2023/07/20 11:38:59;;;;;;;4.40;1.10;;;25.10;1.00;;;;;;5013341;28;20461;-67
2023/07/20 11:41:26;;;;;;;4.93;1.13;;;24.90;1.00;;;;;;5013735;28;20950;-67
2023/07/20 11:43:55;;;;;;;6.77;1.30;;;24.70;1.00;;;;;;5014167;28;20461;-67
2023/07/20 11:46:22;;;;;;;4.60;1.33;;;24.00;1.00;;;;;;5014417;28;20424;-66
2023/07/20 11:48:49;;;;;;;5.50;1.40;;;24.60;1.00;;;;;;5013829;28;20457;-67
2023/07/20 11:51:16;;;;;;;5.23;1.50;;;24.50;1.00;;;;;;5013848;28;20454;-66
2023/07/20 11:53:45;;;;;;;5.90;1.43;;;24.50;1.00;;;;;;5012919;28;20461;-66
2023/07/20 11:56:12;;;;;;;5.33;1.10;;;24.50;1.00;;;;;;5013206;28;20875;-67
2023/07/20 11:58:44;;;;;;;4.87;1.37;;;24.50;1.00;;;;;;5013431;28;20735;-66
2023/07/20 12:01:13;;;;;;;7.30;1.20;;;25.00;1.00;;;;;;5013464;28;20453;-66
2023/07/20 12:03:40;;;;;;;7.13;1.40;;;25.80;1.00;;;;;;5013710;28;20495;-67
2023/07/20 12:06:09;;;;;;;4.83;1.60;;;26.30;1.00;;;;;;5012850;28;20456;-66
2023/07/20 12:08:39;;;;;;;5.20;1.37;;;27.20;1.00;;;;;;5013141;28;20453;-67
2023/07/20 12:11:06;;;;;;;5.70;1.17;;;28.20;1.00;;;;;;5013128;28;20519;-67
2023/07/20 12:13:41;;;;;;;8.30;1.40;;;28.70;1.00;;;;;;5013304;28;20460;-67
2023/07/20 12:16:14;;;;;;;4.40;1.00;;;28.50;1.00;;;;;;5013550;28;20489;-67
2023/07/20 12:18:41;;;;;;;4.50;1.10;;;27.00;1.00;;;;;;5013002;28;21077;-67
2023/07/20 12:21:08;;;;;;;5.10;1.20;;;26.20;1.00;;;;;;5013614;28;20460;-67
2023/07/20 12:23:39;;;;;;;5.30;1.30;;;25.80;1.00;;;;;;5013632;28;20810;-66
2023/07/20 12:26:10;;;;;;;7.30;1.47;;;25.40;1.00;;;;;;5013189;28;20449;-66
2023/07/20 12:28:40;;;;;;;4.93;1.17;;;25.50;1.00;;;;;;5012780;28;20461;-66
2023/07/20 12:31:07;;;;;;;6.17;1.33;;;25.20;1.00;;;;;;5012738;28;20512;-66
2023/07/20 12:33:35;;;;;;;4.20;1.17;;;24.70;1.00;;;;;;5013106;28;20463;-66